sensor_id;sensor_type;location;lat;lon;timestamp;pressure;altitude;pressure_sealevel;temperature;humidity
75409;BME280;63979;55.644;37.734;2024-02-15T00:03:56;101684.66;;;-10.23;67.96
75409;BME280;63979;55.644;37.734;2024-02-15T00:08:57;101684.88;;;-10.37;67.97
75409;BME280;63979;55.644;37.734;2024-02-15T00:13:58;101670.19;;;-10.38;67.71
75409;BME280;63979;55.644;37.734;2024-02-15T00:19:00;101670.47;;;-10.32;67.70
75409;BME280;63979;55.644;37.734;2024-02-15T00:24:01;101676.66;;;-10.29;67.77
75409;BME280;63979;55.644;37.734;2024-02-15T00:29:02;101668.16;;;-10.26;67.05
75409;BME280;63979;55.644;37.734;2024-02-15T00:34:03;101666.50;;;-10.44;66.80
75409;BME280;63979;55.644;37.734;2024-02-15T00:39:04;101669.03;;;-10.26;66.35
75409;BME280;63979;55.644;37.734;2024-02-15T00:44:07;101661.56;;;-10.39;67.33
75409;BME280;63979;55.644;37.734;2024-02-15T00:49:09;101657.13;;;-10.42;68.11
75409;BME280;63979;55.644;37.734;2024-02-15T00:54:10;101646.97;;;-10.38;68.38
75409;BME280;63979;55.644;37.734;2024-02-15T00:59:11;101653.25;;;-10.51;67.96
75409;BME280;63979;55.644;37.734;2024-02-15T01:04:12;101659.63;;;-10.43;68.45
75409;BME280;63979;55.644;37.734;2024-02-15T01:09:14;101636.56;;;-10.59;69.00
75409;BME280;63979;55.644;37.734;2024-02-15T01:14:15;101644.56;;;-10.53;69.47
75409;BME280;63979;55.644;37.734;2024-02-15T01:19:16;101639.59;;;-10.68;69.89
75409;BME280;63979;55.644;37.734;2024-02-15T01:24:17;101647.53;;;-10.63;69.77
75409;BME280;63979;55.644;37.734;2024-02-15T01:29:18;101646.72;;;-10.62;69.79
75409;BME280;63979;55.644;37.734;2024-02-15T01:34:18;101643.81;;;-10.70;70.07
75409;BME280;63979;55.644;37.734;2024-02-15T01:39:20;101635.53;;;-10.63;69.87
75409;BME280;63979;55.644;37.734;2024-02-15T01:44:22;101603.56;;;-10.66;70.00
75409;BME280;63979;55.644;37.734;2024-02-15T01:49:26;101643.59;;;-10.55;69.57
75409;BME280;63979;55.644;37.734;2024-02-15T01:54:28;101595.72;;;-10.87;68.85
75409;BME280;63979;55.644;37.734;2024-02-15T01:59:30;101639.06;;;-10.61;69.21
75409;BME280;63979;55.644;37.734;2024-02-15T02:04:31;101641.09;;;-10.54;69.10
75409;BME280;63979;55.644;37.734;2024-02-15T02:09:32;101622.09;;;-10.56;69.19
75409;BME280;63979;55.644;37.734;2024-02-15T02:14:33;101639.88;;;-10.62;69.03
75409;BME280;63979;55.644;37.734;2024-02-15T02:19:34;101602.16;;;-10.78;69.01
75409;BME280;63979;55.644;37.734;2024-02-15T02:30:08;101638.66;;;-10.70;68.96
75409;BME280;63979;55.644;37.734;2024-02-15T02:35:15;101618.59;;;-10.76;69.32
75409;BME280;63979;55.644;37.734;2024-02-15T02:40:17;101648.44;;;-10.63;69.50
75409;BME280;63979;55.644;37.734;2024-02-15T02:45:19;101660.91;;;-10.72;69.74
75409;BME280;63979;55.644;37.734;2024-02-15T02:50:23;101661.94;;;-10.68;69.93
75409;BME280;63979;55.644;37.734;2024-02-15T02:55:24;101617.00;;;-10.91;69.49
75409;BME280;63979;55.644;37.734;2024-02-15T03:00:27;101661.47;;;-10.78;69.33
75409;BME280;63979;55.644;37.734;2024-02-15T03:05:28;101647.34;;;-10.68;70.05
75409;BME280;63979;55.644;37.734;2024-02-15T03:10:29;101660.31;;;-10.66;69.98
75409;BME280;63979;55.644;37.734;2024-02-15T03:15:30;101664.44;;;-10.70;69.75
75409;BME280;63979;55.644;37.734;2024-02-15T03:20:33;101626.38;;;-11.11;70.12
75409;BME280;63979;55.644;37.734;2024-02-15T03:25:37;101666.06;;;-10.90;69.44
75409;BME280;63979;55.644;37.734;2024-02-15T03:30:38;101670.34;;;-10.90;69.41
75409;BME280;63979;55.644;37.734;2024-02-15T03:35:39;101675.78;;;-10.84;70.04
75409;BME280;63979;55.644;37.734;2024-02-15T03:40:40;101661.47;;;-10.78;69.76
75409;BME280;63979;55.644;37.734;2024-02-15T03:45:42;101676.66;;;-10.84;69.91
75409;BME280;63979;55.644;37.734;2024-02-15T03:50:45;101668.66;;;-10.72;69.64
75409;BME280;63979;55.644;37.734;2024-02-15T03:55:46;101620.47;;;-10.91;68.62
75409;BME280;63979;55.644;37.734;2024-02-15T04:00:47;101678.00;;;-10.74;69.12
75409;BME280;63979;55.644;37.734;2024-02-15T04:05:47;101692.94;;;-10.85;68.85
75409;BME280;63979;55.644;37.734;2024-02-15T04:10:49;101686.25;;;-10.81;69.00
75409;BME280;63979;55.644;37.734;2024-02-15T04:15:50;101648.25;;;-11.03;69.45
75409;BME280;63979;55.644;37.734;2024-02-15T04:20:53;101699.34;;;-10.77;69.22
75409;BME280;63979;55.644;37.734;2024-02-15T04:25:54;101679.38;;;-10.81;70.15
75409;BME280;63979;55.644;37.734;2024-02-15T04:30:55;101695.38;;;-10.70;69.49
75409;BME280;63979;55.644;37.734;2024-02-15T04:35:56;101684.94;;;-10.91;70.05
75409;BME280;63979;55.644;37.734;2024-02-15T04:40:56;101700.31;;;-10.92;69.65
75409;BME280;63979;55.644;37.734;2024-02-15T04:45:58;101688.03;;;-10.98;70.04
75409;BME280;63979;55.644;37.734;2024-02-15T04:50:59;101700.59;;;-10.86;70.94
75409;BME280;63979;55.644;37.734;2024-02-15T04:56:00;101699.97;;;-11.00;70.47
75409;BME280;63979;55.644;37.734;2024-02-15T05:01:02;101695.53;;;-11.03;70.42
75409;BME280;63979;55.644;37.734;2024-02-15T05:06:05;101702.75;;;-10.95;71.07
75409;BME280;63979;55.644;37.734;2024-02-15T05:11:12;101708.59;;;-10.99;70.40
75409;BME280;63979;55.644;37.734;2024-02-15T05:16:18;101697.44;;;-11.16;71.15
75409;BME280;63979;55.644;37.734;2024-02-15T05:21:19;101709.25;;;-11.04;71.10
75409;BME280;63979;55.644;37.734;2024-02-15T05:26:21;101706.75;;;-11.02;71.30
75409;BME280;63979;55.644;37.734;2024-02-15T05:31:23;101686.31;;;-11.15;70.94
75409;BME280;63979;55.644;37.734;2024-02-15T05:36:27;101739.66;;;-10.96;71.23
75409;BME280;63979;55.644;37.734;2024-02-15T05:41:30;101701.41;;;-11.23;70.48
75409;BME280;63979;55.644;37.734;2024-02-15T05:46:33;101718.50;;;-11.25;70.88
75409;BME280;63979;55.644;37.734;2024-02-15T05:51:37;101706.25;;;-11.29;70.63
75409;BME280;63979;55.644;37.734;2024-02-15T05:56:38;101764.47;;;-10.98;70.67
75409;BME280;63979;55.644;37.734;2024-02-15T06:01:39;101763.09;;;-10.92;70.88
75409;BME280;63979;55.644;37.734;2024-02-15T06:06:41;101765.00;;;-10.88;70.02
75409;BME280;63979;55.644;37.734;2024-02-15T06:11:43;101784.22;;;-10.81;70.08
75409;BME280;63979;55.644;37.734;2024-02-15T06:16:45;101790.00;;;-10.69;70.58
75409;BME280;63979;55.644;37.734;2024-02-15T06:21:46;101780.78;;;-10.64;70.19
75409;BME280;63979;55.644;37.734;2024-02-15T06:26:47;101782.78;;;-10.58;70.50
75409;BME280;63979;55.644;37.734;2024-02-15T06:31:49;101787.63;;;-10.47;70.60
75409;BME280;63979;55.644;37.734;2024-02-15T06:37:08;101781.66;;;-10.46;69.68
75409;BME280;63979;55.644;37.734;2024-02-15T06:42:28;101789.53;;;-10.43;69.50
75409;BME280;63979;55.644;37.734;2024-02-15T06:47:31;101796.03;;;-10.33;69.49
75409;BME280;63979;55.644;37.734;2024-02-15T06:52:32;101738.78;;;-10.61;69.48
75409;BME280;63979;55.644;37.734;2024-02-15T06:57:36;101790.59;;;-10.39;69.46
75409;BME280;63979;55.644;37.734;2024-02-15T07:02:36;101787.47;;;-10.50;69.62
75409;BME280;63979;55.644;37.734;2024-02-15T07:07:37;101795.00;;;-10.36;69.71
75409;BME280;63979;55.644;37.734;2024-02-15T07:13:09;101805.13;;;-10.04;69.80
75409;BME280;63979;55.644;37.734;2024-02-15T07:19:00;101810.78;;;-10.11;68.51
75409;BME280;63979;55.644;37.734;2024-02-15T07:24:01;101803.56;;;-10.18;68.16
75409;BME280;63979;55.644;37.734;2024-02-15T07:29:02;101799.72;;;-10.28;67.49
75409;BME280;63979;55.644;37.734;2024-02-15T07:34:06;101794.47;;;-10.47;69.23
75409;BME280;63979;55.644;37.734;2024-02-15T07:39:07;101818.16;;;-10.38;68.57
75409;BME280;63979;55.644;37.734;2024-02-15T07:44:12;101809.44;;;-10.22;68.80
75409;BME280;63979;55.644;37.734;2024-02-15T07:49:16;101806.97;;;-10.19;68.73
75409;BME280;63979;55.644;37.734;2024-02-15T07:54:44;101826.19;;;-9.95;67.97
75409;BME280;63979;55.644;37.734;2024-02-15T07:59:45;101823.03;;;-9.70;67.05
75409;BME280;63979;55.644;37.734;2024-02-15T08:04:48;101817.81;;;-9.33;65.98
75409;BME280;63979;55.644;37.734;2024-02-15T08:09:49;101823.78;;;-9.34;65.03
75409;BME280;63979;55.644;37.734;2024-02-15T08:14:52;101826.69;;;-9.26;64.47
75409;BME280;63979;55.644;37.734;2024-02-15T08:19:52;101810.31;;;-9.46;64.85
75409;BME280;63979;55.644;37.734;2024-02-15T08:24:53;101834.53;;;-9.63;64.52
75409;BME280;63979;55.644;37.734;2024-02-15T08:29:56;101829.50;;;-9.60;64.97
75409;BME280;63979;55.644;37.734;2024-02-15T08:34:56;101832.19;;;-9.77;64.88
75409;BME280;63979;55.644;37.734;2024-02-15T08:39:58;101840.03;;;-9.17;64.81
75409;BME280;63979;55.644;37.734;2024-02-15T08:45:00;101751.97;;;-9.60;63.14
75409;BME280;63979;55.644;37.734;2024-02-15T08:50:00;101836.66;;;-8.95;62.37
75409;BME280;63979;55.644;37.734;2024-02-15T08:55:01;101840.91;;;-8.97;62.27
75409;BME280;63979;55.644;37.734;2024-02-15T09:00:04;101830.47;;;-8.99;62.80
75409;BME280;63979;55.644;37.734;2024-02-15T09:05:13;101839.19;;;-9.16;62.38
75409;BME280;63979;55.644;37.734;2024-02-15T09:10:17;101845.06;;;-9.01;61.55
75409;BME280;63979;55.644;37.734;2024-02-15T09:15:18;101845.47;;;-9.30;62.13
75409;BME280;63979;55.644;37.734;2024-02-15T09:20:19;101846.75;;;-9.40;62.58
75409;BME280;63979;55.644;37.734;2024-02-15T09:25:22;101825.31;;;-9.18;62.66
75409;BME280;63979;55.644;37.734;2024-02-15T09:30:23;101836.47;;;-9.38;62.82
75409;BME280;63979;55.644;37.734;2024-02-15T09:35:26;101851.66;;;-9.27;63.44
75409;BME280;63979;55.644;37.734;2024-02-15T09:40:27;101847.38;;;-9.26;62.72
75409;BME280;63979;55.644;37.734;2024-02-15T09:45:29;101806.97;;;-9.82;62.37
75409;BME280;63979;55.644;37.734;2024-02-15T09:50:34;101843.63;;;-9.14;62.57
75409;BME280;63979;55.644;37.734;2024-02-15T09:55:35;101851.50;;;-8.91;61.91
75409;BME280;63979;55.644;37.734;2024-02-15T10:00:36;101849.97;;;-8.86;62.06
75409;BME280;63979;55.644;37.734;2024-02-15T10:05:37;101842.03;;;-8.91;61.67
75409;BME280;63979;55.644;37.734;2024-02-15T10:10:57;101842.19;;;-8.67;61.41
75409;BME280;63979;55.644;37.734;2024-02-15T10:16:18;101833.44;;;-8.69;61.18
75409;BME280;63979;55.644;37.734;2024-02-15T10:21:27;101842.56;;;-8.58;62.12
75409;BME280;63979;55.644;37.734;2024-02-15T10:26:34;101851.25;;;-8.56;62.24
75409;BME280;63979;55.644;37.734;2024-02-15T10:31:39;101845.81;;;-8.41;61.71
75409;BME280;63979;55.644;37.734;2024-02-15T10:36:41;101844.69;;;-8.47;61.40
75409;BME280;63979;55.644;37.734;2024-02-15T10:41:53;101853.03;;;-8.55;61.82
75409;BME280;63979;55.644;37.734;2024-02-15T10:46:55;101845.72;;;-8.65;62.02
75409;BME280;63979;55.644;37.734;2024-02-15T10:51:57;101844.00;;;-9.04;62.10
75409;BME280;63979;55.644;37.734;2024-02-15T10:57:03;101847.06;;;-8.73;62.53
75409;BME280;63979;55.644;37.734;2024-02-15T11:07:31;101843.94;;;-8.87;62.72
75409;BME280;63979;55.644;37.734;2024-02-15T11:12:32;101797.50;;;-9.43;63.49
75409;BME280;63979;55.644;37.734;2024-02-15T11:22:40;101856.41;;;-8.76;61.54
75409;BME280;63979;55.644;37.734;2024-02-15T11:27:43;101862.00;;;-8.46;61.86
75409;BME280;63979;55.644;37.734;2024-02-15T11:32:47;101862.66;;;-8.92;63.63
75409;BME280;63979;55.644;37.734;2024-02-15T11:37:58;101824.13;;;-9.05;63.07
75409;BME280;63979;55.644;37.734;2024-02-15T11:43:00;101859.66;;;-8.61;63.18
75409;BME280;63979;55.644;37.734;2024-02-15T11:48:07;101865.13;;;-8.74;62.35
75409;BME280;63979;55.644;37.734;2024-02-15T11:53:11;101873.31;;;-8.65;62.55
75409;BME280;63979;55.644;37.734;2024-02-15T11:58:12;101870.50;;;-8.70;62.53
75409;BME280;63979;55.644;37.734;2024-02-15T12:03:15;101884.25;;;-8.71;62.19
75409;BME280;63979;55.644;37.734;2024-02-15T12:08:35;101849.34;;;-9.01;61.49
75409;BME280;63979;55.644;37.734;2024-02-15T12:13:55;101890.84;;;-8.98;62.32
75409;BME280;63979;55.644;37.734;2024-02-15T12:19:14;101880.16;;;-8.87;63.02
75409;BME280;63979;55.644;37.734;2024-02-15T12:24:18;101874.44;;;-8.99;63.06
75409;BME280;63979;55.644;37.734;2024-02-15T12:29:22;101877.16;;;-9.15;63.16
75409;BME280;63979;55.644;37.734;2024-02-15T12:34:24;101881.31;;;-9.19;63.92
75409;BME280;63979;55.644;37.734;2024-02-15T12:39:25;101878.88;;;-9.35;63.48
75409;BME280;63979;55.644;37.734;2024-02-15T12:44:28;101891.41;;;-9.25;64.24
75409;BME280;63979;55.644;37.734;2024-02-15T12:49:33;101882.22;;;-9.18;63.84
75409;BME280;63979;55.644;37.734;2024-02-15T12:54:35;101902.97;;;-9.36;64.93
75409;BME280;63979;55.644;37.734;2024-02-15T12:59:41;101856.56;;;-9.33;63.94
75409;BME280;63979;55.644;37.734;2024-02-15T13:04:42;101851.94;;;-9.21;63.93
75409;BME280;63979;55.644;37.734;2024-02-15T13:09:43;101898.88;;;-8.92;64.20
75409;BME280;63979;55.644;37.734;2024-02-15T13:14:44;101895.13;;;-9.18;65.13
75409;BME280;63979;55.644;37.734;2024-02-15T13:25:13;101891.13;;;-9.12;65.00
75409;BME280;63979;55.644;37.734;2024-02-15T13:30:16;101894.78;;;-8.87;65.28
75409;BME280;63979;55.644;37.734;2024-02-15T13:35:22;101894.53;;;-8.93;65.50
75409;BME280;63979;55.644;37.734;2024-02-15T13:40:27;101907.53;;;-9.30;65.51
75409;BME280;63979;55.644;37.734;2024-02-15T13:45:33;101903.34;;;-9.07;65.86
75409;BME280;63979;55.644;37.734;2024-02-15T13:50:39;101896.94;;;-8.77;65.69
75409;BME280;63979;55.644;37.734;2024-02-15T13:55:40;101886.63;;;-8.96;66.07
75409;BME280;63979;55.644;37.734;2024-02-15T14:00:41;101901.47;;;-8.92;66.34
75409;BME280;63979;55.644;37.734;2024-02-15T14:05:45;101902.16;;;-9.16;67.01
75409;BME280;63979;55.644;37.734;2024-02-15T14:10:48;101914.66;;;-9.05;67.26
75409;BME280;63979;55.644;37.734;2024-02-15T14:15:49;101882.91;;;-9.22;67.55
75409;BME280;63979;55.644;37.734;2024-02-15T14:20:50;101908.59;;;-9.06;67.51
75409;BME280;63979;55.644;37.734;2024-02-15T14:25:51;101912.81;;;-8.89;67.28
75409;BME280;63979;55.644;37.734;2024-02-15T14:30:53;101917.25;;;-9.25;66.82
75409;BME280;63979;55.644;37.734;2024-02-15T14:36:13;101900.78;;;-9.27;68.37
75409;BME280;63979;55.644;37.734;2024-02-15T14:41:15;101908.94;;;-9.18;68.31
75409;BME280;63979;55.644;37.734;2024-02-15T14:46:17;101889.16;;;-9.17;68.25
75409;BME280;63979;55.644;37.734;2024-02-15T14:51:18;101903.25;;;-9.30;68.25
75409;BME280;63979;55.644;37.734;2024-02-15T14:56:19;101882.56;;;-9.30;68.33
75409;BME280;63979;55.644;37.734;2024-02-15T15:01:20;101906.25;;;-9.01;68.25
75409;BME280;63979;55.644;37.734;2024-02-15T15:06:21;101904.75;;;-8.96;68.11
75409;BME280;63979;55.644;37.734;2024-02-15T15:11:40;101911.94;;;-8.89;67.83
75409;BME280;63979;55.644;37.734;2024-02-15T15:17:00;101910.66;;;-9.18;68.89
75409;BME280;63979;55.644;37.734;2024-02-15T15:22:01;101907.72;;;-9.06;68.35
75409;BME280;63979;55.644;37.734;2024-02-15T15:32:24;101912.41;;;-8.78;67.41
75409;BME280;63979;55.644;37.734;2024-02-15T15:37:27;101917.31;;;-8.85;68.26
75409;BME280;63979;55.644;37.734;2024-02-15T15:42:27;101917.75;;;-8.95;68.55
75409;BME280;63979;55.644;37.734;2024-02-15T15:47:28;101909.41;;;-8.88;68.29
75409;BME280;63979;55.644;37.734;2024-02-15T15:52:29;101924.06;;;-8.88;67.78
75409;BME280;63979;55.644;37.734;2024-02-15T15:57:30;101922.56;;;-8.83;67.98
75409;BME280;63979;55.644;37.734;2024-02-15T16:02:31;101928.47;;;-8.86;67.67
75409;BME280;63979;55.644;37.734;2024-02-15T16:07:33;101933.25;;;-8.95;67.65
75409;BME280;63979;55.644;37.734;2024-02-15T16:12:41;101942.38;;;-8.84;67.75
75409;BME280;63979;55.644;37.734;2024-02-15T16:17:43;101954.06;;;-8.72;67.84
75409;BME280;63979;55.644;37.734;2024-02-15T16:22:44;101956.44;;;-8.77;67.42
75409;BME280;63979;55.644;37.734;2024-02-15T16:27:45;101943.41;;;-8.99;67.55
75409;BME280;63979;55.644;37.734;2024-02-15T16:32:48;101963.81;;;-8.86;67.50
75409;BME280;63979;55.644;37.734;2024-02-15T16:37:49;101959.50;;;-9.05;67.42
75409;BME280;63979;55.644;37.734;2024-02-15T16:42:50;101955.28;;;-9.22;68.31
75409;BME280;63979;55.644;37.734;2024-02-15T16:47:54;101968.16;;;-9.04;68.07
75409;BME280;63979;55.644;37.734;2024-02-15T16:53:00;101965.28;;;-9.10;67.68
75409;BME280;63979;55.644;37.734;2024-02-15T16:58:02;101958.63;;;-9.05;67.65
75409;BME280;63979;55.644;37.734;2024-02-15T17:03:03;101963.94;;;-9.02;67.97
75409;BME280;63979;55.644;37.734;2024-02-15T17:08:07;101969.78;;;-9.06;67.80
75409;BME280;63979;55.644;37.734;2024-02-15T17:13:10;101971.38;;;-8.91;67.68
75409;BME280;63979;55.644;37.734;2024-02-15T17:18:11;101971.38;;;-8.91;68.59
75409;BME280;63979;55.644;37.734;2024-02-15T17:23:11;101964.38;;;-8.93;68.24
75409;BME280;63979;55.644;37.734;2024-02-15T17:28:12;101972.91;;;-8.75;68.27
75409;BME280;63979;55.644;37.734;2024-02-15T17:33:13;101956.47;;;-8.96;67.77
75409;BME280;63979;55.644;37.734;2024-02-15T17:38:14;101969.38;;;-8.77;68.27
75409;BME280;63979;55.644;37.734;2024-02-15T17:43:15;101972.09;;;-8.74;68.81
75409;BME280;63979;55.644;37.734;2024-02-15T17:48:16;101965.97;;;-8.76;68.10
75409;BME280;63979;55.644;37.734;2024-02-15T17:53:20;101926.44;;;-8.93;68.47
75409;BME280;63979;55.644;37.734;2024-02-15T17:58:21;101961.50;;;-8.80;68.15
75409;BME280;63979;55.644;37.734;2024-02-15T18:03:22;101969.38;;;-8.77;68.11
75409;BME280;63979;55.644;37.734;2024-02-15T18:08:27;101973.59;;;-8.79;68.24
75409;BME280;63979;55.644;37.734;2024-02-15T18:13:31;101968.44;;;-8.60;68.10
75409;BME280;63979;55.644;37.734;2024-02-15T18:18:32;101956.72;;;-8.71;68.21
75409;BME280;63979;55.644;37.734;2024-02-15T18:23:33;101968.56;;;-8.57;67.98
75409;BME280;63979;55.644;37.734;2024-02-15T18:28:35;101978.53;;;-8.66;67.95
75409;BME280;63979;55.644;37.734;2024-02-15T18:33:36;101971.53;;;-8.47;68.08
75409;BME280;63979;55.644;37.734;2024-02-15T18:38:41;101970.19;;;-8.59;67.48
75409;BME280;63979;55.644;37.734;2024-02-15T18:43:43;101973.31;;;-8.46;67.71
75409;BME280;63979;55.644;37.734;2024-02-15T18:48:50;101984.03;;;-8.58;68.58
75409;BME280;63979;55.644;37.734;2024-02-15T18:53:51;101975.25;;;-8.62;68.83
75409;BME280;63979;55.644;37.734;2024-02-15T18:58:54;101977.91;;;-8.60;68.91
75409;BME280;63979;55.644;37.734;2024-02-15T19:03:55;101963.66;;;-8.51;68.07
75409;BME280;63979;55.644;37.734;2024-02-15T19:08:57;101971.03;;;-8.60;68.51
75409;BME280;63979;55.644;37.734;2024-02-15T19:13:59;101970.72;;;-8.46;68.05
75409;BME280;63979;55.644;37.734;2024-02-15T19:19:02;101968.31;;;-8.63;68.07
75409;BME280;63979;55.644;37.734;2024-02-15T19:24:07;101973.50;;;-8.42;68.81
75409;BME280;63979;55.644;37.734;2024-02-15T19:29:15;101979.50;;;-8.43;68.08
75409;BME280;63979;55.644;37.734;2024-02-15T19:34:15;101970.09;;;-8.41;68.14
75409;BME280;63979;55.644;37.734;2024-02-15T19:39:17;101974.00;;;-8.51;68.47
75409;BME280;63979;55.644;37.734;2024-02-15T19:44:17;101964.78;;;-8.44;68.64
75409;BME280;63979;55.644;37.734;2024-02-15T19:49:20;101970.16;;;-8.39;68.61
75409;BME280;63979;55.644;37.734;2024-02-15T19:54:21;101957.66;;;-8.50;68.33
75409;BME280;63979;55.644;37.734;2024-02-15T19:59:25;101953.41;;;-8.47;68.65
75409;BME280;63979;55.644;37.734;2024-02-15T20:04:26;101966.25;;;-8.30;68.42
75409;BME280;63979;55.644;37.734;2024-02-15T20:09:27;101970.84;;;-8.43;68.46
75409;BME280;63979;55.644;37.734;2024-02-15T20:14:31;101967.31;;;-8.45;68.86
75409;BME280;63979;55.644;37.734;2024-02-15T20:19:32;101967.63;;;-8.17;69.20
75409;BME280;63979;55.644;37.734;2024-02-15T20:24:34;101966.03;;;-8.13;68.38
75409;BME280;63979;55.644;37.734;2024-02-15T20:29:39;101971.09;;;-8.37;68.64
75409;BME280;63979;55.644;37.734;2024-02-15T20:34:40;101968.56;;;-8.36;68.73
75409;BME280;63979;55.644;37.734;2024-02-15T20:39:41;101980.50;;;-8.19;68.96
75409;BME280;63979;55.644;37.734;2024-02-15T20:44:42;101977.03;;;-8.19;68.74
75409;BME280;63979;55.644;37.734;2024-02-15T20:49:47;101976.84;;;-8.24;68.19
75409;BME280;63979;55.644;37.734;2024-02-15T20:54:48;101983.72;;;-8.24;68.55
75409;BME280;63979;55.644;37.734;2024-02-15T20:59:49;101984.50;;;-8.27;68.87
75409;BME280;63979;55.644;37.734;2024-02-15T21:04:50;101983.41;;;-8.32;69.23
75409;BME280;63979;55.644;37.734;2024-02-15T21:09:53;101984.88;;;-8.38;68.68
75409;BME280;63979;55.644;37.734;2024-02-15T21:14:53;101987.22;;;-8.24;69.01
75409;BME280;63979;55.644;37.734;2024-02-15T21:19:54;101994.84;;;-8.27;69.01
75409;BME280;63979;55.644;37.734;2024-02-15T21:24:55;101985.94;;;-8.33;69.07
75409;BME280;63979;55.644;37.734;2024-02-15T21:30:01;101975.22;;;-8.22;69.38
75409;BME280;63979;55.644;37.734;2024-02-15T21:35:05;101982.34;;;-8.16;69.94
75409;BME280;63979;55.644;37.734;2024-02-15T21:40:07;101986.25;;;-8.26;70.22
75409;BME280;63979;55.644;37.734;2024-02-15T21:45:09;101913.00;;;-8.65;69.64
75409;BME280;63979;55.644;37.734;2024-02-15T21:50:12;101991.25;;;-8.30;70.63
75409;BME280;63979;55.644;37.734;2024-02-15T21:55:13;101986.19;;;-8.27;70.96
75409;BME280;63979;55.644;37.734;2024-02-15T22:00:14;101998.69;;;-8.38;71.94
75409;BME280;63979;55.644;37.734;2024-02-15T22:05:15;101990.69;;;-8.23;72.23
75409;BME280;63979;55.644;37.734;2024-02-15T22:10:18;101991.81;;;-8.17;72.15
75409;BME280;63979;55.644;37.734;2024-02-15T22:15:19;101990.31;;;-8.11;71.93
75409;BME280;63979;55.644;37.734;2024-02-15T22:20:19;101981.16;;;-8.24;72.22
75409;BME280;63979;55.644;37.734;2024-02-15T22:25:20;101982.59;;;-8.31;72.82
75409;BME280;63979;55.644;37.734;2024-02-15T22:30:22;101984.38;;;-8.30;72.94
75409;BME280;63979;55.644;37.734;2024-02-15T22:35:23;101993.09;;;-8.28;73.16
75409;BME280;63979;55.644;37.734;2024-02-15T22:40:24;101994.31;;;-8.60;74.26
75409;BME280;63979;55.644;37.734;2024-02-15T22:45:24;101992.63;;;-8.59;74.73
75409;BME280;63979;55.644;37.734;2024-02-15T22:50:25;101989.22;;;-8.37;74.15
75409;BME280;63979;55.644;37.734;2024-02-15T22:55:27;101995.03;;;-8.43;74.26
75409;BME280;63979;55.644;37.734;2024-02-15T23:00:30;101977.59;;;-8.47;73.87
75409;BME280;63979;55.644;37.734;2024-02-15T23:05:36;102000.22;;;-8.22;73.33
75409;BME280;63979;55.644;37.734;2024-02-15T23:10:37;101980.69;;;-8.35;73.39
75409;BME280;63979;55.644;37.734;2024-02-15T23:15:38;102005.34;;;-8.24;73.67
75409;BME280;63979;55.644;37.734;2024-02-15T23:20:39;102005.41;;;-8.22;73.38
75409;BME280;63979;55.644;37.734;2024-02-15T23:25:42;102010.19;;;-8.10;73.67
75409;BME280;63979;55.644;37.734;2024-02-15T23:30:43;102009.09;;;-7.96;73.95
75409;BME280;63979;55.644;37.734;2024-02-15T23:35:47;102011.72;;;-8.15;73.50
75409;BME280;63979;55.644;37.734;2024-02-15T23:41:07;101994.59;;;-8.12;73.39
75409;BME280;63979;55.644;37.734;2024-02-15T23:46:09;102005.66;;;-8.16;73.14
75409;BME280;63979;55.644;37.734;2024-02-15T23:51:11;102001.69;;;-8.29;72.92
75409;BME280;63979;55.644;37.734;2024-02-15T23:56:11;101995.72;;;-8.26;73.42
